METAR Data
IDs: Format: Raw Decoded Include TAF

Data at: 1540 UTC 21 Sep 2018

KMML 211456Z AUTO 33016G23KT 10SM OVC019 09/05 A3017 RMK AO2 SLP221 T00890050 51052
KMML 211356Z AUTO 33018G23KT 10SM OVC015 08/06 A3012 RMK AO2 SLP205 T00780056
KMML 211340Z AUTO 32014G25KT 10SM OVC015 08/06 A3011 RMK AO2
KMML 211316Z AUTO 32017G23KT 10SM OVC011 08/06 A3010 RMK AO2
KMML 211309Z AUTO 32018G24KT 10SM BKN009 OVC015 07/06 A3009 RMK AO2 CIG 008V012
KMML 211256Z AUTO 31019KT 7SM OVC011 08/07 A3008 RMK AO2 CIG 008V014 SLP189 T00780067
KMML 211246Z AUTO 31018KT 3SM BR OVC013 08/07 A3007 RMK AO2
KMML 211234Z AUTO 31017G24KT 10SM OVC015 08/06 A3005 RMK AO2 PK WND 31028/1204
KMML 211204Z AUTO 30020G28KT 9SM BKN008 OVC015 08/07 A3002 RMK AO2 PK WND 31028/1204 CIG 007V012
KMML 211156Z AUTO 32016G25KT 4SM BR SCT008 BKN013 OVC020 08/07 A3001 RMK AO2 PRESRR SLP166 70138 T00830072 10133 20083 51040
KMML 211154Z AUTO 32014G25KT 4SM BR SCT008 BKN013 OVC020 08/07 A3001 RMK AO2 PRESRR
KMML 211135Z AUTO 32017G22KT 10SM FEW009 BKN015 OVC022 09/07 A2998 RMK AO2
KMML 211131Z AUTO 33017G22KT 10SM BKN013 BKN019 OVC026 09/07 A2997 RMK AO2
KMML 211124Z AUTO 32015G23KT 10SM FEW010 SCT013 OVC021 09/07 A2997 RMK AO2
KMML 211108Z AUTO 34014G20KT 9SM FEW009 BKN014 OVC020 09/07 A2995 RMK AO2 PRESRR
KMML 211056Z AUTO 31021G26KT 10SM BKN016 OVC024 09/07 A2994 RMK AO2 PK WND 31027/1020 SLP143 T00940072
KMML 210956Z AUTO 31017KT 10SM BKN018 OVC040 11/08 A2989 RMK AO2 PK WND 31030/0917 SLP123 T01110083
KMML 210954Z AUTO 30016KT 10SM BKN020 OVC040 11/09 A2988 RMK AO2 PK WND 31030/0917
KMML 210939Z AUTO 30019G23KT 10SM SCT020 OVC042 11/08 A2988 RMK AO2 PK WND 31030/0917
KMML 210856Z AUTO 32018G22KT 5SM BR OVC015 12/10 A2985 RMK AO2 SLP112 T01170100 53025
KMML 210756Z AUTO 29015KT 10SM OVC017 12/10 A2983 RMK AO2 SLP103 T01220100
KMML 210656Z AUTO 29022G26KT 10SM OVC015 12/10 A2979 RMK AO2 PK WND 28031/0643 SLP090 T01220100
KMML 210649Z AUTO 29020G31KT 10SM OVC015 13/10 A2979 RMK AO2 PK WND 28031/0643
KMML 210639Z AUTO 30019G27KT 10SM BKN013 OVC021 13/11 A2979 RMK AO2 PK WND 30028/0606
KMML 210556Z AUTO 29016KT 10SM OVC015 13/12 A2978 RMK AO2 SLP084 T01330117 10183 20133 401830133 53029
KMML 210522Z AUTO 29013KT 10SM BKN017 14/12 A2976 RMK AO2
KMML 210456Z AUTO 28019G24KT 10SM SCT017 14/12 A2974 RMK AO2 SLP073 T01390117
KMML 210356Z AUTO 29020G25KT 10SM FEW015 OVC028 15/13 A2971 RMK AO2 SLP063 T01500133
KMML 210334Z AUTO 29016G23KT 10SM SCT013 SCT019 OVC026 16/14 A2970 RMK AO2
KMML 210256Z AUTO 29009KT 10SM OVC011 16/15 A2969 RMK AO2 SLP054 T01560150 53040
KMML 210225Z AUTO 29011KT 10SM BKN011 16/15 A2967 RMK AO2
KMML 210156Z AUTO 30009KT 10SM SCT008 16/15 A2963 RMK AO2 SLP036 T01560150
KMML 210138Z AUTO 31010KT 10SM BKN008 16/15 A2962 RMK AO2
KMML 210131Z AUTO 32011KT 10SM SCT008 16/15 A2962 RMK AO2
KMML 210108Z AUTO 31016G21KT 10SM BKN006 OVC013 17/16 A2961 RMK AO2 CIG 004V009
KMML 210056Z AUTO 31013G22KT 10SM FEW006 BKN014 OVC027 18/18 A2959 RMK AO2 SLP022 T01830178
KMML 210007Z AUTO 28008KT 10SM SCT015 BKN027 18/18 A2957 RMK AO2
KMML 202356Z AUTO 29007KT 10SM BKN013 18/18 A2956 RMK AO2 SLP012 60094 T01830178 10183 20172 55015
KMML 202308Z AUTO 27005KT 10SM SCT004 OVC014 18/17 A2955 RMK AO2
KMML 202256Z AUTO 26003KT 10SM BKN004 BKN012 OVC018 18/17 A2956 RMK AO2 TSE04 SLP012 P0015 T01780172
KMML 202248Z AUTO VRB03KT 10SM BKN004 OVC018 18/18 A2957 RMK AO2 TSE04 P0014
KMML 202222Z AUTO 16007KT 6SM BR SCT004 BKN018 OVC070 18/17 A2959 RMK AO2 LTG DSNT NE-SE TSE04 P0014
KMML 202212Z AUTO 14005KT 2SM BR SCT004 BKN018 OVC070 18/17 A2958 RMK AO2 LTG DSNT NE-S TSE04 P0009
KMML 202204Z AUTO 00000KT 1 3/4SM BR FEW004 BKN035 OVC060 18/17 A2957 RMK AO2 LTG DSNT NE-S TSE04 P0005
KMML 202156Z AUTO 10006KT 2 1/2SM TS BR SCT025 BKN035 OVC070 18/17 A2956 RMK AO2 LTG DSNT NE-S PRESFR SLP012 P0047 T01780172
KMML 202149Z AUTO 10006KT 2SM TS BR SCT025 BKN032 OVC039 18/17 A2957 RMK AO2 VIS 1 1/4V4 LTG DSNT NE-S PRESFR P0043
KMML 202137Z AUTO 14006KT 1 3/4SM TS BR BKN025 BKN032 OVC043 18/17 A2960 RMK AO2 VIS 3/4V4 LTG DSNT ALQDS P0034
KMML 202129Z AUTO 15005KT 1SM TS BR FEW015 BKN025 OVC040 18/17 A2960 RMK AO2 VIS 1/2V1 1/2 LTG DSNT ALQDS PRESRR P0028
KMML 202117Z AUTO 11006KT 3/4SM VCTS BR FEW013 BKN030 OVC038 18/17 A2958 RMK AO2 LTG DSNT ALQDS P0018
KMML 202107Z AUTO 09011KT 1/2SM TS FG FEW005 BKN016 OVC033 18/17 A2957 RMK AO2 LTG DSNT ALQDS PRESFR P0009
KMML 202056Z AUTO 09007KT 3/4SM TS BR SCT005 BKN013 OVC019 17/17 A2961 RMK AO2 LTG DSNT ALQDS TSE18B20 SLP028 P0022 60032 T01720172 56022
KMML 202053Z AUTO 08008KT 3/4SM VCTS BR SCT005 BKN013 OVC019 17/17 A2960 RMK AO2 LTG DSNT ALQDS TSE18B20 P0020
KMML 202051Z AUTO VRB06KT 1SM VCTS BR SCT005 BKN009 OVC019 17/17 A2962 RMK AO2 LTG DSNT ALQDS TSE18B20 CIG 008V011 P0018
KMML 202047Z AUTO 33010KT 1 1/2SM VCTS BR BKN005 BKN012 OVC019 18/17 A2962 RMK AO2 LTG DSNT ALQDS TSE18B20 CIG 004V008 P0016
KMML 202040Z AUTO 35006KT 1 1/2SM VCTS BR SCT007 BKN012 OVC019 18/17 A2962 RMK AO2 LTG DSNT ALQDS TSE18B20 P0015
KMML 202032Z AUTO VRB03KT 3/4SM VCTS BR FEW004 BKN011 OVC019 18/17 A2962 RMK AO2 LTG DSNT ALQDS TSE18B20 P0012
KMML 202028Z AUTO 11005KT 1SM VCTS BR BKN007 BKN011 OVC019 18/17 A2961 RMK AO2 LTG DSNT ALQDS TSE18B20 CIG 003V010 P0006
KMML 202021Z AUTO 09009G17KT 3/4SM VCTS BR BKN005 OVC011 18/17 A2961 RMK AO2 LTG DSNT ALQDS TSE18B20 CIG 003V010 PRESFR P0002
KMML 202019Z AUTO 04010G17KT 1SM BR OVC005 18/17 A2961 RMK AO2 TSE18 CIG 003V010 PRESFR P0001 TSNO
KMML 202016Z AUTO 36011G17KT 320V020 1 3/4SM VCTS BR OVC005 18/17 A2962 RMK AO2 LTG DSNT ALQDS CIG 003V009 P0001
KMML 201956Z AUTO 9SM TS OVC005 18/17 A2962 RMK AO2 LTG DSNT W-N TSB46E54B56 SLP032 P0004 T01780172
KMML 201952Z AUTO 11011KT 10SM VCTS OVC005 18/17 A2962 RMK AO2 LTG DSNT SW-N TSB46 P0004
KMML 201856Z AUTO 10010KT 4SM BR BKN005 OVC009 17/17 A2968 RMK AO2 LTG DSNT E AND SW TSE43 PRESFR SLP051 P0006 T01720167
KMML 201849Z AUTO 11008KT 3SM BR BKN005 BKN011 OVC016 17/17 A2969 RMK AO2 LTG DSNT E AND SW TSE43 P0006
KMML 201833Z AUTO 11007KT 9SM TS FEW008 BKN014 OVC020 17/17 A2971 RMK AO2 LTG DSNT E P0004
KMML 201829Z AUTO 11008KT 10SM TS SCT011 OVC017 17/17 A2970 RMK AO2 LTG DSNT E AND SE P0004
KMML 201756Z AUTO 06003KT 9SM VCTS OVC009 17/17 A2975 RMK AO2 LTG DSNT SE-SW TSB49 CIG 006V012 SLP076 P0004 60044 T01720167 10172 20133 56015
KMML 201734Z AUTO 10006KT 10SM BKN009 BKN027 OVC070 17/17 A2974 RMK AO2 LTG DSNT SE-SW CIG 004V014 P0003
KMML 201712Z AUTO 11008KT 3SM BR SCT004 BKN055 OVC070 17/16 A2976 RMK AO2 LTG DSNT S AND SW P0003
KMML 201656Z AUTO 14007KT 9SM BKN004 BKN010 OVC065 16/16 A2978 RMK AO2 LTG DSNT S SLP087 P0003 T01610161
KMML 201556Z AUTO 10009KT 9SM OVC004 16/15 A2980 RMK AO2 LTG DSNT SE AND S PRESFR SLP092 T01560150
KMML 201456Z AUTO 14010KT 10SM OVC004 14/14 A2984 RMK AO2 SLP106 P0005 60037 T01440139 58027
KMML 201356Z AUTO 11010KT 7SM BKN004 BKN012 OVC065 14/13 A2988 RMK AO2 SLP120 P0015 T01390133
KMML 201352Z AUTO 10008KT 5SM BR BKN004 BKN012 OVC065 14/13 A2987 RMK AO2 P0015
KMML 201348Z AUTO 09007KT 1 1/4SM BR SCT006 BKN049 OVC065 13/13 A2987 RMK AO2 VIS M1/4V5 P0014
KMML 201333Z AUTO 15011KT 110V180 3SM BR FEW004 BKN030 OVC070 13/13 A2988 RMK AO2 CIG 024V036 PRESFR P0011
KMML 201329Z AUTO 09009KT 2 1/2SM BR FEW004 BKN010 OVC070 13/13 A2989 RMK AO2 VIS 2V4 PRESFR P0009
KMML 201256Z AUTO 06003KT 2 1/2SM BR BKN004 BKN010 OVC017 13/13 A2993 RMK AO2 SLP139 P0017 T01330133
KMML 201246Z AUTO 00000KT 1 3/4SM BR BKN004 BKN012 OVC026 13/13 A2993 RMK AO2 CIG 003V009 P0014
KMML 201230Z AUTO 11005KT 2SM BR BKN006 OVC012 13/13 A2993 RMK AO2 CIG 004V010 P0009
KMML 201223Z AUTO 11004KT 2SM BR BKN004 OVC009 13/13 A2993 RMK AO2 CIG 004V007 P0007
KMML 201208Z AUTO VRB05KT 6SM BR OVC004 13/13 A2992 RMK AO2 P0002
KMML 201156Z AUTO 15004KT 9SM OVC004 13/13 A2992 RMK AO2 PRESRR SLP135 P0007 60112 70198 T01330133 10133 20133 50001
KMML 201140Z AUTO 07011KT 8SM BKN004 BKN011 OVC026 13/13 A2985 RMK AO2 PRESFR P0006
KMML 201106Z AUTO 06005KT 5SM BR SCT006 BKN011 OVC028 13/13 A2993 RMK AO2 P0002
KMML 201056Z AUTO 05003KT 2 1/2SM BR SCT004 BKN013 OVC035 13/13 A2994 RMK AO2 SLP143 P0018 T01330128
KMML 201053Z AUTO 06006KT 2 1/2SM BR BKN004 BKN013 OVC035 13/13 A2994 RMK AO2 P0016
KMML 200956Z AUTO 11008KT 4SM BR OVC004 13/13 A2992 RMK AO2 SLP133 P0014 T01330128
KMML 200910Z AUTO 07004KT 4SM BR BKN004 OVC012 13/13 A2995 RMK AO2 P0004
KMML 200856Z AUTO 08007KT 2SM BR BKN004 OVC014 13/13 A2994 RMK AO2 CIG 004V008 SLP141 P0027 60073 T01330128 58009
KMML 200852Z AUTO 08007KT 2SM BR BKN004 OVC014 13/13 A2994 RMK AO2 CIG 004V008 P0024
KMML 200845Z AUTO 07007KT 2 1/2SM BR SCT004 BKN008 OVC014 13/13 A2994 RMK AO2 CIG 006V012 PRESFR P0020
KMML 200822Z AUTO 06006KT 3SM BR BKN004 OVC038 13/13 A2996 RMK AO2 P0010
KMML 200812Z AUTO 06005KT 3SM BR SCT004 BKN032 OVC040 13/13 A2997 RMK AO2 P0007
KMML 200756Z AUTO 08005KT 2 1/2SM BR SCT006 BKN014 OVC039 13/13 A2997 RMK AO2 SLP152 P0026 T01330128
KMML 200751Z AUTO 08006KT 2 1/2SM BR BKN006 BKN014 OVC036 13/13 A2997 RMK AO2 CIG 004V008 P0024
KMML 200724Z AUTO 06004KT 2 1/2SM BR OVC004 13/13 A2998 RMK AO2 P0011
KMML 200717Z AUTO 07004KT 3SM BR OVC004 13/13 A2998 RMK AO2 CIG 003V010 P0007
KMML 200705Z AUTO 08004KT 3SM BR OVC006 13/13 A2999 RMK AO2 CIG 003V010 P0002
KMML 200656Z AUTO 04007KT 3SM BR OVC003 13/13 A2999 RMK AO2 TSE19 CIG 003V007 SLP158 P0020 T01330128
KMML 200640Z AUTO 07009KT 2 1/2SM BR OVC003 13/13 A2998 RMK AO2 LTG DSNT W TSE19 P0013
KMML 200625Z AUTO 08013KT 3SM BR OVC003 13/13 A2996 RMK AO2 LTG DSNT W TSE19 PRESFR P0007
KMML 200617Z AUTO 07011KT 3SM TS BR OVC003 13/13 A2998 RMK AO2 LTG DSNT W P0005
KMML 200607Z AUTO 05010KT 1 1/4SM TS BR OVC003 13/13 A2999 RMK AO2 P0003
KMML 200556Z AUTO 06008KT 1SM VCTS BR OVC003 13/13 A3000 RMK AO2 TSB48 SLP160 P0002 60007 T01330133 10150 20133 401780133 55000
KMML 200548Z AUTO 04010KT 3/4SM VCTS BR OVC003 13/13 A2999 RMK AO2 LTG DSNT S TSB48 P0001
KMML 200541Z AUTO 03010KT 1SM BR OVC003 13/13 A2999 RMK AO2 LTG DSNT S P0001
KMML 200533Z AUTO 05009KT 2SM BR OVC003 13/13 A2999 RMK AO2 LTG DSNT SW
KMML 200456Z AUTO 04009KT 3SM BR OVC003 14/13 A2999 RMK AO2 SLP156 T01390133
KMML 200356Z AUTO 05008KT 7SM OVC003 14/13 A3000 RMK AO2 LTG DSNT SW SLP162 T01390133